Time;durP1;ratioP1;P1;durP2;ratioP2;P2;SDS_P1;SDS_P2;PMS_P1;PMS_P2;Temp;Humidity;BMP_temperature;BMP_pressure;BME280_temperature;BME280_humidity;BME280_pressure;Samples;Min_cycle;Max_cycle;Signal;HPM_P1;HPM_P2
2023/12/11 00:01:22;;;;;;;36.13;6.18;;;;;;;;;;5039629;28;20036;-85
2023/12/11 00:03:48;;;;;;;42.33;5.55;;;;;;;;;;5038174;28;20032;-85
2023/12/11 00:06:14;;;;;;;42.75;4.70;;;;;;;;;;5068797;28;20389;-82
2023/12/11 00:08:42;;;;;;;34.95;6.38;;;;;;;;;;5038003;28;20040;-83
2023/12/11 00:11:09;;;;;;;29.40;4.45;;;;;;;;;;5041364;28;20040;-85
2023/12/11 00:13:35;;;;;;;33.83;6.10;;;;;;;;;;5071800;28;20101;-83
2023/12/11 00:16:01;;;;;;;30.90;4.90;;;;;;;;;;5050877;28;20041;-85
2023/12/11 00:18:27;;;;;;;46.45;7.40;;;;;;;;;;5058086;28;20040;-86
2023/12/11 00:20:53;;;;;;;56.83;7.28;;;;;;;;;;5054494;28;20052;-86
2023/12/11 00:23:19;;;;;;;48.28;5.55;;;;;;;;;;5069399;28;20514;-83
2023/12/11 00:25:49;;;;;;;49.40;5.50;;;;;;;;;;5068010;28;21408;-83
2023/12/11 00:28:17;;;;;;;46.45;5.97;;;;;;;;;;5069944;28;20045;-83
2023/12/11 00:30:43;;;;;;;40.83;5.00;;;;;;;;;;5085715;28;20150;-84
2023/12/11 00:33:09;;;;;;;43.65;5.47;;;;;;;;;;5038492;28;20169;-84
2023/12/11 00:35:35;;;;;;;41.95;5.50;;;;;;;;;;5070765;28;20039;-85
2023/12/11 00:38:01;;;;;;;44.63;5.70;;;;;;;;;;5062963;28;20048;-84
2023/12/11 00:40:27;;;;;;;31.23;4.70;;;;;;;;;;5082486;28;20392;-86
2023/12/11 00:42:53;;;;;;;36.03;5.35;;;;;;;;;;5082356;28;20047;-83
2023/12/11 00:45:19;;;;;;;43.47;5.68;;;;;;;;;;5039565;28;20400;-86
2023/12/11 00:47:45;;;;;;;41.58;4.82;;;;;;;;;;5068939;28;20051;-84
2023/12/11 00:50:11;;;;;;;38.42;5.30;;;;;;;;;;5074457;28;20198;-84
2023/12/11 00:52:37;;;;;;;35.88;5.05;;;;;;;;;;5041618;28;20047;-86
2023/12/11 00:55:04;;;;;;;45.47;6.38;;;;;;;;;;5085831;28;20059;-79
2023/12/11 00:57:30;;;;;;;50.17;6.13;;;;;;;;;;5067730;28;20040;-85
2023/12/11 00:59:56;;;;;;;47.75;6.57;;;;;;;;;;5042807;28;20041;-84
2023/12/11 01:02:22;;;;;;;42.03;5.80;;;;;;;;;;5034645;28;20580;-85
2023/12/11 01:04:48;;;;;;;36.33;4.88;;;;;;;;;;5040596;28;20144;-84
2023/12/11 01:07:14;;;;;;;35.33;6.15;;;;;;;;;;5052388;28;20072;-86
2023/12/11 01:09:41;;;;;;;47.50;5.38;;;;;;;;;;5051592;28;20029;-83
2023/12/11 01:12:07;;;;;;;38.63;4.55;;;;;;;;;;5054117;28;20063;-84
2023/12/11 01:14:33;;;;;;;42.33;5.13;;;;;;;;;;5086559;28;20378;-86
2023/12/11 01:16:59;;;;;;;48.28;6.95;;;;;;;;;;5069474;28;20043;-85
2023/12/11 01:19:26;;;;;;;43.50;5.75;;;;;;;;;;5070130;28;20044;-86
2023/12/11 01:21:52;;;;;;;38.97;5.40;;;;;;;;;;5071550;28;20036;-85
2023/12/11 01:24:19;;;;;;;38.72;5.78;;;;;;;;;;5036987;28;20090;-85
2023/12/11 01:26:45;;;;;;;46.72;6.43;;;;;;;;;;5069286;28;20064;-86
2023/12/11 01:29:11;;;;;;;53.03;6.15;;;;;;;;;;5040958;28;20087;-82
2023/12/11 01:31:37;;;;;;;43.83;6.57;;;;;;;;;;5067611;28;20109;-87
2023/12/11 01:34:03;;;;;;;51.92;6.68;;;;;;;;;;5039870;28;20039;-86
2023/12/11 01:36:29;;;;;;;52.25;7.18;;;;;;;;;;5053683;28;20047;-82
2023/12/11 01:38:55;;;;;;;46.65;6.35;;;;;;;;;;5039857;28;20040;-85
2023/12/11 01:41:22;;;;;;;41.95;6.75;;;;;;;;;;5051504;28;20036;-86
2023/12/11 01:43:52;;;;;;;48.33;7.93;;;;;;;;;;5072533;28;20487;-82
2023/12/11 01:46:19;;;;;;;56.35;7.30;;;;;;;;;;5079388;28;20071;-85
2023/12/11 01:48:45;;;;;;;44.42;5.75;;;;;;;;;;5039243;28;20522;-83
2023/12/11 01:51:12;;;;;;;52.13;7.97;;;;;;;;;;5083407;28;20063;-85
2023/12/11 01:53:38;;;;;;;48.30;6.25;;;;;;;;;;5038174;28;20080;-80
2023/12/11 01:56:05;;;;;;;37.53;4.65;;;;;;;;;;5072915;28;20152;-83
2023/12/11 01:58:31;;;;;;;45.35;4.78;;;;;;;;;;5083977;28;20067;-83
2023/12/11 02:00:57;;;;;;;42.60;5.65;;;;;;;;;;5053880;28;20524;-85
2023/12/11 02:03:26;;;;;;;28.88;6.13;;;;;;;;;;5086489;28;20071;-84
2023/12/11 02:05:52;;;;;;;48.83;7.05;;;;;;;;;;5051563;28;20036;-85
2023/12/11 02:08:18;;;;;;;35.33;4.70;;;;;;;;;;5055985;28;20045;-85
2023/12/11 02:10:44;;;;;;;37.88;5.00;;;;;;;;;;5051779;28;20044;-85
2023/12/11 02:13:11;;;;;;;41.78;6.28;;;;;;;;;;5049839;28;20106;-82
2023/12/11 02:15:37;;;;;;;47.33;8.50;;;;;;;;;;5057296;28;20452;-85
2023/12/11 02:18:03;;;;;;;50.00;6.13;;;;;;;;;;5067368;28;20044;-86
2023/12/11 02:20:29;;;;;;;45.55;6.65;;;;;;;;;;5038151;28;20068;-85
2023/12/11 02:22:58;;;;;;;44.25;6.53;;;;;;;;;;5048546;28;20052;-84
2023/12/11 02:25:25;;;;;;;33.13;4.95;;;;;;;;;;5055931;28;20049;-84
2023/12/11 02:27:52;;;;;;;41.55;5.82;;;;;;;;;;5052409;28;20049;-84
2023/12/11 02:30:18;;;;;;;45.63;6.47;;;;;;;;;;5065956;28;20062;-78
2023/12/11 02:32:44;;;;;;;44.92;5.32;;;;;;;;;;5049336;28;20037;-83
2023/12/11 02:35:10;;;;;;;49.38;6.07;;;;;;;;;;5044445;28;20024;-82
2023/12/11 02:37:37;;;;;;;42.63;6.13;;;;;;;;;;5061879;28;20041;-81
2023/12/11 02:40:03;;;;;;;28.02;4.57;;;;;;;;;;5076688;28;20044;-82
2023/12/11 02:42:29;;;;;;;40.20;6.35;;;;;;;;;;5029724;28;20070;-80
2023/12/11 02:44:55;;;;;;;41.88;5.53;;;;;;;;;;5031945;28;20048;-82
2023/12/11 02:47:21;;;;;;;23.38;4.30;;;;;;;;;;5064488;28;20063;-82
2023/12/11 02:49:47;;;;;;;32.63;4.78;;;;;;;;;;5030871;28;20429;-78
2023/12/11 02:52:13;;;;;;;39.42;4.00;;;;;;;;;;5030059;28;20051;-83
2023/12/11 02:54:39;;;;;;;33.75;5.28;;;;;;;;;;5039579;28;20033;-84
2023/12/11 02:57:05;;;;;;;40.85;6.25;;;;;;;;;;5047654;28;20072;-83
2023/12/11 02:59:32;;;;;;;46.40;6.88;;;;;;;;;;5046510;28;20041;-84
2023/12/11 03:01:58;;;;;;;52.13;7.60;;;;;;;;;;5030040;28;20091;-85
2023/12/11 03:04:24;;;;;;;44.28;6.15;;;;;;;;;;5026721;28;20087;-83
2023/12/11 03:06:52;;;;;;;60.38;7.38;;;;;;;;;;5045291;28;20087;-83
2023/12/11 03:09:18;;;;;;;54.17;7.43;;;;;;;;;;5035521;28;20037;-85
2023/12/11 03:11:44;;;;;;;46.63;7.80;;;;;;;;;;5022579;28;20037;-85
2023/12/11 03:14:10;;;;;;;55.40;6.47;;;;;;;;;;5047545;28;20855;-87
2023/12/11 03:16:36;;;;;;;33.30;5.60;;;;;;;;;;5046926;28;20098;-86
2023/12/11 03:19:02;;;;;;;59.00;7.05;;;;;;;;;;5032314;28;20132;-87
2023/12/11 03:21:28;;;;;;;59.15;8.32;;;;;;;;;;5043410;28;20098;-86
2023/12/11 03:23:54;;;;;;;59.85;8.30;;;;;;;;;;5033796;28;20408;-88
2023/12/11 03:26:20;;;;;;;52.83;8.68;;;;;;;;;;5028857;28;20056;-86
2023/12/11 03:28:46;;;;;;;68.85;8.10;;;;;;;;;;5062565;28;20504;-86
2023/12/11 03:31:12;;;;;;;53.30;6.90;;;;;;;;;;5016786;28;20037;-79
2023/12/11 03:33:42;;;;;;;54.33;6.97;;;;;;;;;;5044008;28;20120;-85
2023/12/11 03:36:08;;;;;;;59.92;7.32;;;;;;;;;;5045080;28;20059;-85
2023/12/11 03:38:34;;;;;;;55.20;6.60;;;;;;;;;;5027791;28;20052;-82
2023/12/11 03:41:00;;;;;;;56.10;7.45;;;;;;;;;;5043490;28;20053;-80
2023/12/11 03:43:26;;;;;;;67.70;10.07;;;;;;;;;;5026689;28;20049;-83
2023/12/11 03:45:55;;;;;;;56.05;7.47;;;;;;;;;;5047428;28;20607;-78
2023/12/11 03:48:21;;;;;;;72.18;9.63;;;;;;;;;;5067402;28;20435;-84
2023/12/11 03:50:47;;;;;;;49.85;6.40;;;;;;;;;;5064839;28;20056;-84
2023/12/11 03:53:13;;;;;;;71.88;8.27;;;;;;;;;;5057789;28;20043;-82
2023/12/11 03:55:40;;;;;;;63.03;8.05;;;;;;;;;;5032008;28;20144;-85
2023/12/11 03:58:06;;;;;;;66.50;7.90;;;;;;;;;;5051227;28;20041;-86
2023/12/11 04:00:32;;;;;;;57.70;7.57;;;;;;;;;;5034037;28;20621;-86
2023/12/11 04:02:58;;;;;;;67.75;8.57;;;;;;;;;;5035886;28;20369;-86
2023/12/11 04:05:24;;;;;;;56.53;8.30;;;;;;;;;;5052700;28;20099;-84
2023/12/11 04:07:50;;;;;;;59.35;7.50;;;;;;;;;;5049957;28;20041;-88
2023/12/11 04:10:16;;;;;;;59.15;7.53;;;;;;;;;;5050904;28;20037;-83
2023/12/11 04:12:43;;;;;;;54.88;8.18;;;;;;;;;;5037992;28;20554;-85
2023/12/11 04:15:10;;;;;;;59.55;8.85;;;;;;;;;;5051212;28;20047;-85
2023/12/11 04:17:36;;;;;;;60.67;8.27;;;;;;;;;;5047238;28;20045;-84
2023/12/11 04:20:03;;;;;;;47.95;6.90;;;;;;;;;;5055959;28;20044;-82
2023/12/11 04:22:29;;;;;;;72.88;7.75;;;;;;;;;;5044557;28;20693;-84
2023/12/11 04:24:55;;;;;;;70.68;7.70;;;;;;;;;;5039279;28;20064;-84
2023/12/11 04:27:22;;;;;;;67.65;6.88;;;;;;;;;;5036787;28;20432;-83
2023/12/11 04:29:48;;;;;;;62.97;7.00;;;;;;;;;;5053951;28;20047;-83
2023/12/11 04:32:14;;;;;;;69.60;6.82;;;;;;;;;;5021040;28;20096;-81
2023/12/11 04:34:40;;;;;;;58.58;7.22;;;;;;;;;;5060455;28;20032;-85
2023/12/11 04:37:06;;;;;;;53.30;6.90;;;;;;;;;;5034872;28;20427;-86
2023/12/11 04:39:33;;;;;;;69.07;8.32;;;;;;;;;;5045977;28;20041;-86
2023/12/11 04:41:59;;;;;;;68.82;9.23;;;;;;;;;;5035597;28;20041;-86
2023/12/11 04:44:25;;;;;;;67.10;8.40;;;;;;;;;;5060214;28;20574;-86
2023/12/11 04:46:51;;;;;;;67.32;8.10;;;;;;;;;;5036075;28;20044;-84
2023/12/11 04:49:17;;;;;;;64.95;8.65;;;;;;;;;;5052420;28;20041;-85
2023/12/11 04:51:43;;;;;;;42.92;6.22;;;;;;;;;;5067558;28;20713;-85
2023/12/11 04:54:09;;;;;;;57.90;6.72;;;;;;;;;;5056213;28;20033;-83
2023/12/11 04:56:35;;;;;;;67.05;7.43;;;;;;;;;;5069107;28;20973;-83
2023/12/11 04:59:01;;;;;;;55.60;6.97;;;;;;;;;;5073710;28;20052;-85
2023/12/11 05:01:27;;;;;;;68.30;9.18;;;;;;;;;;5038758;28;20075;-87
2023/12/11 05:03:53;;;;;;;58.60;6.78;;;;;;;;;;5087944;28;20086;-85
2023/12/11 05:06:22;;;;;;;65.13;9.13;;;;;;;;;;5047136;28;20075;-82
2023/12/11 05:08:48;;;;;;;50.67;6.80;;;;;;;;;;5051298;28;20021;-85
2023/12/11 05:11:14;;;;;;;47.47;6.50;;;;;;;;;;5064122;28;20036;-87
2023/12/11 05:13:40;;;;;;;59.85;6.00;;;;;;;;;;5029728;28;20047;-86
2023/12/11 05:16:07;;;;;;;57.30;7.75;;;;;;;;;;5062917;28;20036;-86
2023/12/11 05:18:33;;;;;;;45.90;7.90;;;;;;;;;;5061428;28;20127;-86
2023/12/11 05:21:05;;;;;;;49.20;6.32;;;;;;;;;;5033343;28;20052;-87
2023/12/11 05:23:31;;;;;;;64.53;7.47;;;;;;;;;;5062045;28;20719;-85
2023/12/11 05:25:57;;;;;;;54.85;7.35;;;;;;;;;;5084998;28;20036;-86
2023/12/11 05:28:23;;;;;;;57.13;8.55;;;;;;;;;;5021274;28;20037;-85
2023/12/11 05:30:49;;;;;;;54.72;9.07;;;;;;;;;;5063979;28;20051;-81
2023/12/11 05:33:16;;;;;;;50.17;7.47;;;;;;;;;;5067362;28;20093;-85
2023/12/11 05:35:42;;;;;;;51.38;6.90;;;;;;;;;;5035244;28;20045;-81
2023/12/11 05:38:08;;;;;;;48.83;7.90;;;;;;;;;;5067027;28;20065;-89
2023/12/11 05:40:34;;;;;;;43.55;6.00;;;;;;;;;;5036077;28;20484;-89
2023/12/11 05:43:00;;;;;;;42.45;6.00;;;;;;;;;;5066648;28;20127;-88
2023/12/11 05:45:27;;;;;;;63.00;6.65;;;;;;;;;;5041835;28;20040;-85
2023/12/11 05:47:53;;;;;;;66.22;8.70;;;;;;;;;;5045602;28;20048;-83
2023/12/11 05:50:19;;;;;;;37.40;5.80;;;;;;;;;;5053765;28;20515;-86
2023/12/11 05:52:45;;;;;;;50.72;5.88;;;;;;;;;;5031624;28;20068;-89
2023/12/11 05:55:11;;;;;;;50.88;5.85;;;;;;;;;;5079335;28;20047;-87
2023/12/11 05:57:37;;;;;;;55.33;7.40;;;;;;;;;;5050790;28;20049;-89
2023/12/11 06:00:04;;;;;;;48.38;7.10;;;;;;;;;;5051568;28;20065;-86
2023/12/11 06:02:30;;;;;;;48.47;7.05;;;;;;;;;;5068913;28;20115;-88
2023/12/11 06:04:56;;;;;;;44.30;6.72;;;;;;;;;;5051091;28;20037;-88
2023/12/11 06:07:23;;;;;;;52.58;7.20;;;;;;;;;;5079613;28;20051;-85
2023/12/11 06:09:49;;;;;;;41.88;6.68;;;;;;;;;;5052538;28;20044;-87
2023/12/11 06:12:16;;;;;;;55.22;7.95;;;;;;;;;;5069811;28;20048;-87
2023/12/11 06:14:42;;;;;;;49.63;7.28;;;;;;;;;;5057881;28;20162;-87
2023/12/11 06:17:08;;;;;;;48.70;6.22;;;;;;;;;;5076364;28;20498;-88
2023/12/11 06:19:34;;;;;;;54.35;5.95;;;;;;;;;;5042233;28;20095;-86
2023/12/11 06:22:00;;;;;;;41.42;6.18;;;;;;;;;;5069420;28;20102;-84
2023/12/11 06:24:26;;;;;;;47.00;6.78;;;;;;;;;;5069263;28;20479;-85
2023/12/11 06:26:54;;;;;;;53.00;9.50;;;;;;;;;;5069805;28;20074;-83
2023/12/11 06:29:20;;;;;;;32.42;6.22;;;;;;;;;;5084809;28;20055;-80
2023/12/11 06:31:46;;;;;;;52.83;6.45;;;;;;;;;;5035047;28;20561;-86
2023/12/11 06:34:12;;;;;;;45.20;5.55;;;;;;;;;;5056453;28;20041;-86
2023/12/11 06:36:39;;;;;;;50.25;6.40;;;;;;;;;;5066014;28;20119;-86
2023/12/11 06:39:05;;;;;;;63.53;7.25;;;;;;;;;;5054303;28;20047;-86
2023/12/11 06:41:31;;;;;;;59.67;6.82;;;;;;;;;;5070419;28;20047;-78
2023/12/11 06:43:57;;;;;;;52.17;6.72;;;;;;;;;;5036479;28;20490;-77
2023/12/11 06:46:28;;;;;;;61.47;7.15;;;;;;;;;;5049597;28;20056;-79
2023/12/11 06:48:54;;;;;;;61.80;8.57;;;;;;;;;;5065152;28;20155;-79
2023/12/11 06:51:20;;;;;;;52.70;8.25;;;;;;;;;;5063697;28;20081;-78
2023/12/11 06:53:46;;;;;;;61.58;7.32;;;;;;;;;;5051950;28;20047;-78
2023/12/11 06:56:19;;;;;;;41.05;5.72;;;;;;;;;;5057916;28;20123;-77
2023/12/11 06:58:46;;;;;;;59.45;9.40;;;;;;;;;;5064947;28;20040;-76
2023/12/11 07:01:12;;;;;;;55.55;6.93;;;;;;;;;;5084283;28;20087;-77
2023/12/11 07:03:42;;;;;;;52.45;6.80;;;;;;;;;;5031504;28;20036;-77
2023/12/11 07:06:11;;;;;;;47.75;6.30;;;;;;;;;;5065826;28;20082;-77
2023/12/11 07:08:38;;;;;;;45.15;6.07;;;;;;;;;;5066990;28;20098;-77
2023/12/11 07:11:06;;;;;;;49.58;6.30;;;;;;;;;;5082695;28;20036;-78
2023/12/11 07:13:32;;;;;;;39.78;5.80;;;;;;;;;;5054020;28;20041;-79
2023/12/11 07:15:58;;;;;;;40.67;5.18;;;;;;;;;;5036286;28;20032;-78
2023/12/11 07:18:24;;;;;;;42.92;5.00;;;;;;;;;;5050646;28;20408;-78
2023/12/11 07:20:50;;;;;;;41.28;5.20;;;;;;;;;;5036529;28;20059;-78
2023/12/11 07:23:17;;;;;;;35.55;5.63;;;;;;;;;;5036794;28;20562;-78
2023/12/11 07:25:43;;;;;;;45.20;5.63;;;;;;;;;;5081032;28;20063;-78
2023/12/11 07:28:10;;;;;;;44.67;4.85;;;;;;;;;;5053716;28;20040;-78
2023/12/11 07:30:36;;;;;;;46.90;6.38;;;;;;;;;;5044122;28;20087;-77
2023/12/11 07:33:03;;;;;;;48.30;5.07;;;;;;;;;;5083633;28;20435;-77
2023/12/11 07:35:29;;;;;;;42.92;5.72;;;;;;;;;;5084071;28;20044;-77
2023/12/11 07:37:55;;;;;;;50.17;5.88;;;;;;;;;;5048826;28;20424;-77
2023/12/11 07:40:21;;;;;;;46.50;5.75;;;;;;;;;;5065019;28;20041;-77
2023/12/11 07:42:47;;;;;;;54.67;7.38;;;;;;;;;;5051207;28;20052;-78
2023/12/11 07:45:14;;;;;;;57.13;5.93;;;;;;;;;;5067098;28;20161;-74
2023/12/11 07:47:40;;;;;;;46.20;6.90;;;;;;;;;;5067367;28;20075;-76
2023/12/11 07:50:06;;;;;;;44.50;5.75;;;;;;;;;;5061076;28;20098;-76
2023/12/11 07:52:32;;;;;;;51.63;5.97;;;;;;;;;;5062950;28;20528;-77
2023/12/11 07:54:59;;;;;;;55.15;8.75;;;;;;;;;;5047751;28;20106;-75
2023/12/11 07:57:28;;;;;;;60.33;6.70;;;;;;;;;;5083863;28;20044;-81
2023/12/11 07:59:55;;;;;;;54.50;6.78;;;;;;;;;;5065990;28;20551;-80
2023/12/11 08:02:21;;;;;;;46.42;7.30;;;;;;;;;;5072753;28;20071;-81
2023/12/11 08:04:47;;;;;;;55.50;7.97;;;;;;;;;;5070623;28;20044;-82
2023/12/11 08:07:14;;;;;;;55.47;6.30;;;;;;;;;;5036667;28;20039;-81
2023/12/11 08:09:40;;;;;;;41.70;6.00;;;;;;;;;;5051914;28;20044;-81
2023/12/11 08:12:06;;;;;;;42.90;6.03;;;;;;;;;;5086557;28;20052;-82
2023/12/11 08:14:33;;;;;;;37.33;5.75;;;;;;;;;;5071418;28;20175;-81
2023/12/11 08:16:59;;;;;;;53.78;6.60;;;;;;;;;;5078658;28;20036;-82
2023/12/11 08:19:26;;;;;;;48.97;6.07;;;;;;;;;;5051011;28;20076;-82
2023/12/11 08:21:52;;;;;;;43.45;6.18;;;;;;;;;;5037114;28;20156;-82
2023/12/11 08:24:19;;;;;;;39.80;6.53;;;;;;;;;;5070459;28;20036;-81
2023/12/11 08:26:46;;;;;;;42.17;5.82;;;;;;;;;;5037044;28;20131;-81
2023/12/11 08:29:12;;;;;;;39.25;4.80;;;;;;;;;;5059151;28;20066;-81
2023/12/11 08:31:38;;;;;;;41.78;4.75;;;;;;;;;;5067068;28;20083;-82
2023/12/11 08:34:05;;;;;;;33.22;4.25;;;;;;;;;;5075151;28;20062;-82
2023/12/11 08:36:31;;;;;;;29.50;4.32;;;;;;;;;;5068735;28;20040;-82
2023/12/11 08:38:57;;;;;;;36.42;4.47;;;;;;;;;;5089683;28;20040;-82
2023/12/11 08:41:23;;;;;;;39.53;7.13;;;;;;;;;;5057640;28;20036;-82
2023/12/11 08:43:49;;;;;;;34.35;6.15;;;;;;;;;;5070112;28;20079;-83
2023/12/11 08:46:15;;;;;;;44.70;9.82;;;;;;;;;;5043836;28;20040;-83
2023/12/11 08:48:43;;;;;;;42.33;7.10;;;;;;;;;;5075685;28;20060;-82
2023/12/11 08:51:09;;;;;;;28.08;4.47;;;;;;;;;;5053386;28;20049;-83
2023/12/11 08:53:36;;;;;;;41.08;5.32;;;;;;;;;;5086194;28;20082;-82
2023/12/11 08:56:02;;;;;;;44.22;5.47;;;;;;;;;;5074167;28;20120;-84
2023/12/11 08:58:28;;;;;;;33.85;5.05;;;;;;;;;;5051963;28;20071;-83
2023/12/11 09:00:54;;;;;;;28.25;5.15;;;;;;;;;;5057039;28;20123;-84
2023/12/11 09:03:23;;;;;;;37.05;4.90;;;;;;;;;;5039610;28;20040;-82
2023/12/11 09:05:49;;;;;;;27.20;5.38;;;;;;;;;;5092010;28;20069;-84
2023/12/11 09:08:16;;;;;;;33.63;5.05;;;;;;;;;;5089384;28;20041;-83
2023/12/11 09:10:42;;;;;;;35.63;5.25;;;;;;;;;;5065236;28;20125;-84
2023/12/11 09:13:08;;;;;;;35.78;5.40;;;;;;;;;;5041073;28;20079;-84
2023/12/11 09:15:34;;;;;;;39.88;6.15;;;;;;;;;;5058859;28;20422;-84
2023/12/11 09:18:01;;;;;;;27.50;5.68;;;;;;;;;;5054465;28;20093;-84
2023/12/11 09:20:27;;;;;;;34.83;5.40;;;;;;;;;;5070360;28;20226;-84
2023/12/11 09:22:53;;;;;;;20.60;4.15;;;;;;;;;;5059707;28;20066;-85
2023/12/11 09:25:19;;;;;;;31.08;5.35;;;;;;;;;;5059848;28;20039;-84
2023/12/11 09:27:45;;;;;;;33.47;5.53;;;;;;;;;;5066721;28;20052;-84
2023/12/11 09:30:11;;;;;;;23.10;5.78;;;;;;;;;;5039064;28;20571;-84
2023/12/11 09:32:37;;;;;;;22.63;6.07;;;;;;;;;;5051850;28;20067;-84
2023/12/11 09:35:05;;;;;;;34.67;7.70;;;;;;;;;;5073045;28;20047;-83
2023/12/11 09:37:31;;;;;;;36.83;6.93;;;;;;;;;;5069171;28;20046;-83
2023/12/11 09:39:57;;;;;;;37.85;7.38;;;;;;;;;;5056936;28;20051;-83
2023/12/11 09:42:23;;;;;;;27.38;6.95;;;;;;;;;;5039262;28;20056;-84
2023/12/11 09:44:49;;;;;;;24.17;6.32;;;;;;;;;;5069053;28;20130;-83
2023/12/11 09:47:19;;;;;;;30.98;8.18;;;;;;;;;;5050814;28;20050;-83
2023/12/11 09:49:46;;;;;;;39.20;7.60;;;;;;;;;;5057219;28;20500;-83
2023/12/11 09:52:13;;;;;;;32.08;7.70;;;;;;;;;;5082978;28;20049;-84
2023/12/11 09:54:39;;;;;;;24.48;6.85;;;;;;;;;;5057239;28;20055;-83
2023/12/11 09:57:07;;;;;;;42.88;7.60;;;;;;;;;;5084867;28;20047;-84
2023/12/11 09:59:33;;;;;;;36.65;7.10;;;;;;;;;;5068587;28;20046;-83
2023/12/11 10:01:59;;;;;;;38.05;8.05;;;;;;;;;;5075152;28;20055;-84
2023/12/11 10:04:25;;;;;;;39.08;9.43;;;;;;;;;;5071199;28;20557;-86
2023/12/11 10:06:52;;;;;;;28.35;7.25;;;;;;;;;;5054717;28;20079;-85
2023/12/11 10:09:28;;;;;;;33.25;7.68;;;;;;;;;;5066750;28;20053;-80
2023/12/11 10:11:58;;;;;;;33.60;7.38;;;;;;;;;;5051959;28;20033;-80
2023/12/11 10:14:25;;;;;;;31.65;6.85;;;;;;;;;;5043841;28;20045;-80
2023/12/11 10:16:51;;;;;;;21.80;5.50;;;;;;;;;;5087054;28;20155;-80
2023/12/11 10:19:19;;;;;;;40.20;6.82;;;;;;;;;;5085183;28;20449;-79
2023/12/11 10:21:45;;;;;;;53.05;7.95;;;;;;;;;;5036218;28;20063;-79
2023/12/11 10:24:14;;;;;;;32.25;6.07;;;;;;;;;;5074026;28;20048;-79
2023/12/11 10:26:45;;;;;;;31.20;6.28;;;;;;;;;;5088230;28;20044;-79
2023/12/11 10:29:19;;;;;;;41.30;6.05;;;;;;;;;;5048987;28;20573;-80
2023/12/11 10:31:46;;;;;;;38.22;5.68;;;;;;;;;;5070930;28;20078;-80
2023/12/11 10:34:12;;;;;;;31.95;3.85;;;;;;;;;;5050287;28;20036;-80
2023/12/11 10:36:52;;;;;;;35.33;4.55;;;;;;;;;;5071129;28;20036;-80
2023/12/11 10:39:19;;;;;;;34.78;4.53;;;;;;;;;;5067891;28;20044;-80
2023/12/11 10:41:46;;;;;;;25.20;4.18;;;;;;;;;;5051488;28;20048;-80
2023/12/11 10:44:32;;;;;;;33.65;4.00;;;;;;;;;;5088426;28;20556;-80
2023/12/11 10:46:58;;;;;;;30.83;4.22;;;;;;;;;;5036398;28;20567;-80
2023/12/11 10:49:25;;;;;;;21.73;3.40;;;;;;;;;;5068463;28;20038;-80
2023/12/11 10:51:51;;;;;;;18.95;3.03;;;;;;;;;;5036958;28;20052;-80
2023/12/11 10:54:21;;;;;;;28.80;3.20;;;;;;;;;;5037469;28;20051;-79
2023/12/11 10:56:48;;;;;;;38.72;5.55;;;;;;;;;;5050261;28;20045;-80
2023/12/11 10:59:14;;;;;;;30.33;4.10;;;;;;;;;;5060860;28;20047;-80
2023/12/11 11:01:42;;;;;;;19.00;3.20;;;;;;;;;;5033331;28;20540;-80
2023/12/11 11:04:09;;;;;;;20.15;3.70;;;;;;;;;;5069488;28;20114;-79
2023/12/11 11:06:47;;;;;;;23.00;3.70;;;;;;;;;;5086313;28;20040;-80
2023/12/11 11:09:17;;;;;;;29.42;4.63;;;;;;;;;;5089459;28;20044;-80
2023/12/11 11:11:47;;;;;;;37.35;5.03;;;;;;;;;;5050360;28;20040;-80
2023/12/11 11:14:25;;;;;;;26.75;3.53;;;;;;;;;;5066179;28;20048;-79
2023/12/11 11:16:55;;;;;;;28.75;3.75;;;;;;;;;;5051158;28;20048;-80
2023/12/11 11:19:21;;;;;;;31.67;3.83;;;;;;;;;;5072885;28;20040;-80
2023/12/11 11:22:00;;;;;;;36.65;4.55;;;;;;;;;;5053728;28;20037;-80
2023/12/11 11:24:26;;;;;;;28.75;4.60;;;;;;;;;;5053577;28;20150;-80
2023/12/11 11:26:52;;;;;;;36.72;6.13;;;;;;;;;;5067094;28;20059;-80
2023/12/11 11:29:41;;;;;;;34.00;4.45;;;;;;;;;;5071695;28;20127;-80
2023/12/11 11:32:07;;;;;;;30.60;3.92;;;;;;;;;;5063080;28;20087;-79
2023/12/11 11:34:42;;;;;;;38.20;4.35;;;;;;;;;;5075982;28;20529;-80
2023/12/11 11:37:14;;;;;;;29.60;4.88;;;;;;;;;;5063295;28;20127;-80
2023/12/11 11:39:56;;;;;;;32.65;4.00;;;;;;;;;;5084048;28;20065;-80
2023/12/11 11:42:22;;;;;;;41.58;4.53;;;;;;;;;;5063962;28;20044;-79
2023/12/11 11:44:50;;;;;;;33.28;5.00;;;;;;;;;;5020775;28;20040;-79
2023/12/11 11:47:20;;;;;;;30.63;3.85;;;;;;;;;;5051581;28;20041;-79
2023/12/11 11:49:46;;;;;;;32.05;3.78;;;;;;;;;;5084720;28;20554;-79
2023/12/11 11:52:12;;;;;;;29.15;4.38;;;;;;;;;;5067605;28;20061;-80
2023/12/11 11:54:39;;;;;;;26.83;3.90;;;;;;;;;;5067721;28;20037;-80
2023/12/11 11:57:06;;;;;;;28.10;5.38;;;;;;;;;;5066321;28;20488;-80
2023/12/11 11:59:32;;;;;;;26.15;3.83;;;;;;;;;;5051665;28;20043;-79
2023/12/11 12:01:59;;;;;;;25.92;3.03;;;;;;;;;;5055686;28;20045;-80
2023/12/11 12:04:35;;;;;;;26.85;3.08;;;;;;;;;;5054262;28;20028;-79
2023/12/11 12:07:02;;;;;;;15.38;2.95;;;;;;;;;;5077390;28;20740;-80
2023/12/11 12:09:28;;;;;;;19.95;2.88;;;;;;;;;;5058934;28;20048;-80
2023/12/11 12:11:55;;;;;;;24.42;3.00;;;;;;;;;;5056859;28;20040;-80
2023/12/11 12:14:21;;;;;;;24.40;2.70;;;;;;;;;;5036330;28;20488;-80
2023/12/11 12:16:47;;;;;;;16.65;2.45;;;;;;;;;;5083529;28;20084;-80
2023/12/11 12:19:15;;;;;;;24.60;2.42;;;;;;;;;;5070677;28;20036;-80
2023/12/11 12:21:51;;;;;;;9.98;2.38;;;;;;;;;;5080102;28;20075;-79
2023/12/11 12:24:18;;;;;;;15.32;2.80;;;;;;;;;;5056571;28;20050;-80
2023/12/11 12:26:46;;;;;;;19.70;3.90;;;;;;;;;;5053773;28;20059;-80
2023/12/11 12:29:13;;;;;;;16.73;2.25;;;;;;;;;;5052521;28;20037;-80
2023/12/11 12:31:39;;;;;;;15.43;2.30;;;;;;;;;;5058780;28;20080;-81
2023/12/11 12:34:07;;;;;;;15.15;2.03;;;;;;;;;;5053256;28;20047;-80
2023/12/11 12:36:33;;;;;;;12.77;2.20;;;;;;;;;;5062570;28;20029;-80
2023/12/11 12:39:00;;;;;;;17.77;3.22;;;;;;;;;;5061510;28;20044;-80
2023/12/11 12:41:28;;;;;;;16.13;2.30;;;;;;;;;;5056805;28;20112;-80
2023/12/11 12:43:58;;;;;;;12.13;2.00;;;;;;;;;;5043423;28;20052;-80
2023/12/11 12:46:37;;;;;;;19.92;3.15;;;;;;;;;;5072888;28;20131;-81
2023/12/11 12:49:13;;;;;;;14.60;2.38;;;;;;;;;;5060281;28;20408;-80
2023/12/11 12:51:46;;;;;;;17.73;2.53;;;;;;;;;;5077213;28;20076;-80
2023/12/11 12:54:13;;;;;;;17.75;2.47;;;;;;;;;;5057531;28;20848;-83
2023/12/11 12:56:40;;;;;;;15.30;3.05;;;;;;;;;;5088307;28;20032;-79
2023/12/11 12:59:07;;;;;;;15.70;1.95;;;;;;;;;;5072009;28;20059;-80
2023/12/11 13:01:37;;;;;;;15.35;2.90;;;;;;;;;;5050853;28;20110;-79
2023/12/11 13:04:04;;;;;;;17.15;1.95;;;;;;;;;;5068280;28;20044;-79
2023/12/11 13:06:30;;;;;;;9.15;1.55;;;;;;;;;;5074488;28;20127;-79
2023/12/11 13:08:56;;;;;;;16.95;2.20;;;;;;;;;;5059548;28;20045;-79
2023/12/11 13:11:22;;;;;;;8.30;1.38;;;;;;;;;;5039015;28;20513;-80
2023/12/11 13:13:53;;;;;;;11.43;1.75;;;;;;;;;;5022365;28;20040;-80
2023/12/11 13:16:19;;;;;;;9.57;1.80;;;;;;;;;;5093617;28;20043;-80
2023/12/11 13:18:49;;;;;;;14.05;2.25;;;;;;;;;;5054855;28;20135;-81
2023/12/11 13:21:15;;;;;;;14.00;1.90;;;;;;;;;;5067806;28;20492;-81
2023/12/11 13:23:41;;;;;;;14.52;2.75;;;;;;;;;;5050063;28;20040;-80
2023/12/11 13:26:07;;;;;;;12.05;2.25;;;;;;;;;;5065059;28;20544;-80
2023/12/11 13:28:33;;;;;;;14.10;2.95;;;;;;;;;;5086982;28;20404;-80
2023/12/11 13:30:59;;;;;;;12.65;2.72;;;;;;;;;;5083317;28;20115;-80
2023/12/11 13:33:27;;;;;;;12.98;2.15;;;;;;;;;;5054859;28;20043;-80
2023/12/11 13:35:54;;;;;;;39.28;3.03;;;;;;;;;;5050047;28;20491;-80
2023/12/11 13:38:20;;;;;;;16.70;2.22;;;;;;;;;;5087669;28;20036;-80
2023/12/11 13:40:46;;;;;;;17.50;2.00;;;;;;;;;;5054258;28;20076;-77
2023/12/11 13:43:12;;;;;;;18.25;2.40;;;;;;;;;;5049053;28;20051;-78
2023/12/11 13:45:38;;;;;;;15.60;1.90;;;;;;;;;;5053652;28;20070;-77
2023/12/11 13:48:04;;;;;;;17.85;2.17;;;;;;;;;;5055776;28;20073;-78
2023/12/11 13:50:30;;;;;;;16.48;2.63;;;;;;;;;;5072487;28;20048;-77
2023/12/11 13:52:57;;;;;;;18.77;2.53;;;;;;;;;;5055355;28;20115;-78
2023/12/11 13:55:23;;;;;;;21.10;3.45;;;;;;;;;;5042075;28;20044;-77
2023/12/11 13:57:49;;;;;;;13.90;1.92;;;;;;;;;;5058060;28;20552;-78
2023/12/11 14:00:16;;;;;;;19.80;2.83;;;;;;;;;;5040081;28;20146;-78
2023/12/11 14:02:44;;;;;;;13.50;1.55;;;;;;;;;;5053998;28;20041;-78
2023/12/11 14:05:10;;;;;;;17.20;2.13;;;;;;;;;;5066545;28;20072;-77
2023/12/11 14:07:36;;;;;;;11.75;3.03;;;;;;;;;;5033486;28;20491;-78
2023/12/11 14:10:04;;;;;;;15.43;2.15;;;;;;;;;;5024723;28;20079;-78
2023/12/11 14:12:30;;;;;;;17.98;3.45;;;;;;;;;;5086454;28;20045;-77
2023/12/11 14:14:57;;;;;;;15.50;2.30;;;;;;;;;;5042612;28;20490;-78
2023/12/11 14:17:23;;;;;;;16.30;2.80;;;;;;;;;;5070298;28;20040;-79
2023/12/11 14:19:49;;;;;;;16.58;2.00;;;;;;;;;;5057193;28;20076;-78
2023/12/11 14:22:15;;;;;;;19.35;2.17;;;;;;;;;;5055595;28;20040;-78
2023/12/11 14:24:41;;;;;;;14.70;2.05;;;;;;;;;;5075368;28;20075;-78
2023/12/11 14:27:10;;;;;;;15.77;2.10;;;;;;;;;;5049706;28;20430;-78
2023/12/11 14:29:36;;;;;;;18.10;2.00;;;;;;;;;;5035067;28;21413;-78